createdAt,value
2019-02-21T00:00:00.227Z,79.30
2019-02-21T00:01:00.192Z,79.20
2019-02-21T00:02:00.200Z,79.41
2019-02-21T00:03:00.167Z,79.03
2019-02-21T00:04:00.156Z,79.00
2019-02-21T00:05:00.329Z,79.51
2019-02-21T00:06:00.199Z,79.20
2019-02-21T00:07:00.121Z,78.93
2019-02-21T00:08:00.114Z,79.20
2019-02-21T00:09:00.101Z,78.93
2019-02-21T00:10:00.272Z,79.03
2019-02-21T00:11:00.119Z,79.14
2019-02-21T00:12:00.067Z,79.03
2019-02-21T00:13:00.055Z,79.65
2019-02-21T00:14:00.046Z,79.44
2019-02-21T00:15:00.032Z,80.93
2019-02-21T00:16:00.019Z,80.30
2019-02-21T00:17:00.027Z,80.55
2019-02-21T00:17:59.998Z,80.96
2019-02-21T00:18:59.985Z,80.62
2019-02-21T00:19:59.977Z,80.20
2019-02-21T00:20:59.963Z,80.51
2019-02-21T00:21:59.977Z,81.13
2019-02-21T00:22:59.942Z,80.72
2019-02-21T00:23:59.932Z,81.13
2019-02-21T00:24:59.920Z,80.68
2019-02-21T00:25:59.907Z,80.72
2019-02-21T00:26:59.892Z,80.58
2019-02-21T00:27:59.902Z,80.27
2019-02-21T00:28:59.875Z,80.51
2019-02-21T00:29:59.859Z,80.41
2019-02-21T00:30:59.859Z,80.27
2019-02-21T00:31:59.836Z,80.27
2019-02-21T00:32:59.867Z,79.96
2019-02-21T00:33:59.814Z,80.58
2019-02-21T00:34:59.802Z,80.06
2019-02-21T00:35:59.790Z,80.27
2019-02-21T00:36:59.778Z,80.68
2019-02-21T00:37:59.769Z,80.37
2019-02-21T00:38:59.773Z,80.47
2019-02-21T00:39:59.748Z,80.58
2019-02-21T00:40:59.733Z,80.27
2019-02-21T00:41:59.720Z,80.27
2019-02-21T00:42:59.710Z,80.68
2019-02-21T00:43:59.719Z,80.79
2019-02-21T00:44:59.687Z,80.89
2019-02-21T00:45:59.674Z,80.79
2019-02-21T00:46:59.663Z,80.89
2019-02-21T00:47:59.655Z,80.79
2019-02-21T00:48:59.664Z,79.96
2019-02-21T00:49:59.633Z,79.24
2019-02-21T00:50:59.618Z,79.44
2019-02-21T00:51:59.609Z,79.96
2019-02-21T00:52:59.593Z,80.16
2019-02-21T00:53:59.624Z,79.86
2019-02-21T00:54:59.572Z,80.27
2019-02-21T00:55:59.563Z,80.06
2019-02-21T00:56:59.549Z,79.48
2019-02-21T00:57:59.538Z,79.65
2019-02-21T00:58:59.530Z,80.20
2019-02-21T00:59:59.538Z,80.20
2019-02-21T01:00:59.504Z,80.34
2019-02-21T01:01:59.493Z,80.14
2019-02-21T01:02:59.482Z,80.34
2019-02-21T01:03:59.468Z,80.76
2019-02-21T01:04:59.477Z,80.76
2019-02-21T01:05:59.454Z,81.10
2019-02-21T01:06:59.438Z,81.51
2019-02-21T01:07:59.428Z,81.72
2019-02-21T01:08:59.415Z,82.10
2019-02-21T01:09:59.429Z,82.14
2019-02-21T01:10:59.393Z,82.14
2019-02-21T01:11:59.382Z,82.34
2019-02-21T01:12:59.372Z,82.03
2019-02-21T01:13:59.356Z,82.55
2019-02-21T01:14:59.347Z,82.34
2019-02-21T01:15:59.393Z,82.48
2019-02-21T01:16:59.323Z,82.89
2019-02-21T01:17:59.312Z,82.79
2019-02-21T01:18:59.300Z,82.52
2019-02-21T01:19:59.288Z,83.00
2019-02-21T01:20:59.305Z,83.14
2019-02-21T01:21:59.269Z,82.38
2019-02-21T01:22:59.258Z,83.10
2019-02-21T01:23:59.246Z,83.65
2019-02-21T01:24:59.235Z,83.76
2019-02-21T01:25:59.224Z,84.23
2019-02-21T01:26:59.231Z,84.38
2019-02-21T01:27:59.202Z,84.55
2019-02-21T01:28:59.189Z,83.97
2019-02-21T01:29:59.182Z,83.51
2019-02-21T01:30:59.169Z,83.86
2019-02-21T01:31:59.180Z,83.55
2019-02-21T01:32:59.146Z,84.03
2019-02-21T01:33:59.135Z,84.28
2019-02-21T01:34:59.129Z,84.03
2019-02-21T01:35:59.111Z,83.51
2019-02-21T01:36:59.147Z,83.62
2019-02-21T01:37:59.089Z,83.31
2019-02-21T01:38:59.078Z,83.86
2019-02-21T01:39:59.068Z,83.97
2019-02-21T01:40:59.055Z,83.65
2019-02-21T01:41:59.048Z,84.59
2019-02-21T01:42:59.061Z,84.28
2019-02-21T01:43:59.025Z,84.28
2019-02-21T01:44:59.011Z,84.38
2019-02-21T01:45:59.001Z,84.28
2019-02-21T01:46:58.993Z,83.51
2019-02-21T01:47:58.978Z,83.51
2019-02-21T01:48:59.574Z,83.41
2019-02-21T01:49:58.956Z,83.72
2019-02-21T01:50:58.958Z,82.89
2019-02-21T01:51:58.933Z,83.00
2019-02-21T01:52:58.924Z,83.00
2019-02-21T01:53:58.936Z,83.00
2019-02-21T01:54:58.899Z,83.34
2019-02-21T01:55:58.888Z,83.86
2019-02-21T01:56:58.877Z,83.86
2019-02-21T01:57:58.869Z,83.45
2019-02-21T01:58:58.870Z,83.55
2019-02-21T01:59:58.841Z,83.76
2019-02-21T02:01:07.991Z,83.76
2019-02-21T02:01:59.818Z,83.55
2019-02-21T02:02:58.833Z,83.55
2019-02-21T02:03:58.816Z,83.55
2019-02-21T02:04:58.784Z,84.52
2019-02-21T02:05:58.772Z,84.38
2019-02-21T02:06:58.762Z,84.48
2019-02-21T02:07:58.752Z,84.83
2019-02-21T02:08:58.759Z,84.94
2019-02-21T02:09:58.730Z,84.73
2019-02-21T02:10:58.736Z,85.14
2019-02-21T02:11:58.708Z,85.35
2019-02-21T02:12:58.693Z,84.94
2019-02-21T02:13:58.702Z,85.14
2019-02-21T02:14:58.674Z,84.83
2019-02-21T02:15:58.660Z,85.24
2019-02-21T02:16:58.648Z,85.04
2019-02-21T02:17:58.637Z,84.94
2019-02-21T02:18:58.656Z,85.35
2019-02-21T02:19:58.614Z,84.83
2019-02-21T02:20:58.606Z,84.94
2019-02-21T02:21:58.592Z,85.08
2019-02-21T02:22:58.579Z,85.28
2019-02-21T02:23:58.569Z,85.60
2019-02-21T02:24:58.575Z,85.80
2019-02-21T02:25:58.547Z,85.76
2019-02-21T02:26:58.533Z,85.91
2019-02-21T02:27:58.524Z,85.91
2019-02-21T02:28:58.540Z,86.21
2019-02-21T02:29:58.500Z,86.52
2019-02-21T02:30:58.489Z,86.21
2019-02-21T02:31:58.479Z,85.91
2019-02-21T02:32:58.468Z,85.70
2019-02-21T02:33:58.453Z,86.32
2019-02-21T02:34:59.914Z,86.32
2019-02-21T02:35:58.432Z,86.36
2019-02-21T02:36:58.422Z,86.15
2019-02-21T02:37:58.410Z,86.67
2019-02-21T02:38:58.409Z,86.15
2019-02-21T02:39:58.406Z,86.15
2019-02-21T02:40:58.375Z,87.46
2019-02-21T02:41:58.366Z,87.29
2019-02-21T02:42:58.352Z,86.83
2019-02-21T02:43:58.341Z,86.88
2019-02-21T02:44:58.373Z,86.77
2019-02-21T02:45:58.321Z,87.08
2019-02-21T02:46:58.304Z,86.98
2019-02-21T02:47:58.296Z,87.91
2019-02-21T02:48:58.283Z,87.18
2019-02-21T02:49:58.272Z,87.18
2019-02-21T02:50:58.283Z,86.98
2019-02-21T02:51:58.248Z,86.77
2019-02-21T02:52:58.238Z,87.49
2019-02-21T02:53:58.226Z,87.91
2019-02-21T02:54:58.232Z,87.29
2019-02-21T02:55:58.222Z,87.39
2019-02-21T02:56:58.193Z,87.29
2019-02-21T02:57:58.180Z,87.70
2019-02-21T02:58:58.170Z,87.70
2019-02-21T02:59:58.156Z,87.81
2019-02-21T03:00:58.165Z,87.49
2019-02-21T03:01:58.136Z,88.01
2019-02-21T03:02:58.130Z,87.81
2019-02-21T03:03:58.134Z,86.88
2019-02-21T03:04:58.101Z,87.25
2019-02-21T03:05:58.112Z,87.04
2019-02-21T03:06:58.075Z,86.63
2019-02-21T03:07:58.066Z,86.32
2019-02-21T03:08:58.056Z,85.80
2019-02-21T03:09:58.041Z,86.21
2019-02-21T03:10:58.051Z,85.91
2019-02-21T03:11:58.025Z,85.76
2019-02-21T03:12:58.012Z,85.76
2019-02-21T03:13:58.008Z,86.07
2019-02-21T03:14:57.984Z,86.28
2019-02-21T03:15:58.016Z,85.55
2019-02-21T03:16:57.962Z,85.97
2019-02-21T03:17:57.951Z,85.97
2019-02-21T03:18:57.939Z,85.91
2019-02-21T03:19:57.927Z,85.80
2019-02-21T03:20:57.920Z,86.11
2019-02-21T03:21:57.926Z,86.07
2019-02-21T03:22:57.893Z,85.66
2019-02-21T03:23:57.883Z,85.80
2019-02-21T03:24:57.934Z,85.91
2019-02-21T03:25:57.878Z,85.70
2019-02-21T03:26:57.845Z,85.80
2019-02-21T03:27:57.836Z,86.28
2019-02-21T03:28:57.824Z,85.70
2019-02-21T03:29:57.810Z,85.86
2019-02-21T03:30:57.824Z,86.07
2019-02-21T03:31:57.792Z,86.01
2019-02-21T03:32:57.788Z,85.86
2019-02-21T03:33:57.770Z,85.35
2019-02-21T03:34:57.761Z,85.86
2019-02-21T03:35:57.757Z,86.07
2019-02-21T03:36:57.757Z,86.01
2019-02-21T03:37:57.723Z,85.76
2019-02-21T03:38:57.712Z,85.55
2019-02-21T03:39:57.698Z,85.66
2019-02-21T03:40:57.686Z,85.86
2019-02-21T03:41:57.694Z,85.35
2019-02-21T03:42:57.665Z,85.24
2019-02-21T03:43:57.661Z,85.04
2019-02-21T03:44:57.640Z,85.49
2019-02-21T03:45:57.627Z,85.66
2019-02-21T03:46:57.641Z,85.24
2019-02-21T03:47:57.617Z,85.24
2019-02-21T03:48:57.594Z,85.35
2019-02-21T03:49:57.583Z,85.24
2019-02-21T03:50:57.570Z,85.10
2019-02-21T03:51:57.563Z,85.00
2019-02-21T03:52:57.569Z,85.31
2019-02-21T03:53:57.538Z,85.21
2019-02-21T03:54:57.525Z,85.10
2019-02-21T03:55:57.516Z,84.94
2019-02-21T03:56:57.516Z,85.31
2019-02-21T03:57:57.515Z,85.31
2019-02-21T03:58:57.483Z,84.48
2019-02-21T03:59:57.471Z,85.45
2019-02-21T04:00:57.460Z,84.69
2019-02-21T04:02:05.378Z,84.69
2019-02-21T04:02:58.459Z,84.69
2019-02-21T04:03:57.427Z,84.69
2019-02-21T04:04:57.422Z,84.69
2019-02-21T04:05:57.404Z,84.59
2019-02-21T04:06:57.392Z,84.89
2019-02-21T04:07:57.383Z,85.00
2019-02-21T04:08:57.395Z,84.69
2019-02-21T04:09:57.358Z,85.31
2019-02-21T04:10:57.346Z,84.89
2019-02-21T04:11:57.331Z,84.79
2019-02-21T04:12:57.322Z,85.41
2019-02-21T04:13:57.329Z,85.10
2019-02-21T04:14:57.299Z,84.79
2019-02-21T04:15:57.287Z,84.79
2019-02-21T04:16:57.277Z,84.79
2019-02-21T04:17:57.262Z,84.79
2019-02-21T04:18:57.298Z,84.59
2019-02-21T04:19:57.241Z,84.89
2019-02-21T04:20:57.315Z,84.63
2019-02-21T04:21:57.220Z,85.04
2019-02-21T04:22:57.225Z,84.94
2019-02-21T04:23:57.195Z,85.04
2019-02-21T04:24:57.206Z,84.83
2019-02-21T04:25:57.173Z,85.04
2019-02-21T04:26:57.170Z,85.45
2019-02-21T04:27:57.150Z,85.35
2019-02-21T04:28:57.137Z,85.14
2019-02-21T04:29:57.147Z,85.14
2019-02-21T04:30:57.114Z,85.55
2019-02-21T04:31:57.120Z,85.97
2019-02-21T04:32:57.091Z,86.18
2019-02-21T04:33:57.078Z,86.03
2019-02-21T04:34:57.109Z,85.72
2019-02-21T04:35:57.056Z,85.62
2019-02-21T04:36:57.045Z,85.04
2019-02-21T04:37:57.058Z,85.41
2019-02-21T04:38:57.021Z,85.21
2019-02-21T04:39:57.021Z,85.31
2019-02-21T04:40:57.020Z,85.31
2019-02-21T04:41:56.996Z,85.41
2019-02-21T04:42:56.988Z,85.00
2019-02-21T04:43:56.970Z,85.52
2019-02-21T04:44:56.953Z,85.14
2019-02-21T04:45:56.965Z,85.41
2019-02-21T04:46:57.030Z,85.00
2019-02-21T04:47:56.929Z,85.41
2019-02-21T04:48:56.915Z,85.31
2019-02-21T04:49:56.899Z,84.69
2019-02-21T04:50:56.898Z,84.86
2019-02-21T04:51:56.893Z,85.31
2019-02-21T04:52:56.864Z,84.89
2019-02-21T04:53:56.855Z,84.59
2019-02-21T04:54:56.839Z,85.10
2019-02-21T04:55:56.831Z,84.89
2019-02-21T04:56:56.833Z,85.10
2019-02-21T04:57:56.803Z,85.10
2019-02-21T04:58:56.792Z,86.13
2019-02-21T04:59:56.788Z,85.62
2019-02-21T05:00:56.772Z,85.72
2019-02-21T05:01:56.780Z,85.72
2019-02-21T05:02:56.746Z,85.41
2019-02-21T05:03:56.737Z,85.31
2019-02-21T05:04:56.734Z,84.75
2019-02-21T05:05:56.713Z,85.00
2019-02-21T05:06:56.724Z,84.69
2019-02-21T05:07:56.692Z,85.10
2019-02-21T05:08:56.677Z,85.00
2019-02-21T05:09:58.326Z,85.31
2019-02-21T05:10:56.656Z,84.89
2019-02-21T05:11:56.644Z,85.52
2019-02-21T05:12:56.652Z,86.18
2019-02-21T05:14:03.656Z,85.76
2019-02-21T05:14:56.608Z,85.97
2019-02-21T05:15:56.598Z,85.55
2019-02-21T05:16:56.609Z,86.28
2019-02-21T05:17:56.599Z,87.21
2019-02-21T05:18:56.576Z,87.21
2019-02-21T05:19:56.551Z,86.03
2019-02-21T05:20:56.543Z,86.69
2019-02-21T05:21:56.605Z,86.03
2019-02-21T05:22:56.563Z,85.62
2019-02-21T05:23:56.507Z,86.03
2019-02-21T05:24:56.498Z,86.49
2019-02-21T05:25:56.483Z,86.65
2019-02-21T05:26:56.472Z,86.24
2019-02-21T05:27:56.462Z,86.55
2019-02-21T05:28:56.493Z,87.27
2019-02-21T05:29:56.438Z,86.34
2019-02-21T05:30:56.427Z,86.34
2019-02-21T05:31:56.416Z,86.13
2019-02-21T05:32:56.402Z,86.24
2019-02-21T05:33:56.396Z,86.13
2019-02-21T05:34:56.400Z,86.34
2019-02-21T05:35:56.369Z,86.13
2019-02-21T05:36:56.358Z,86.13
2019-02-21T05:37:56.347Z,86.13
2019-02-21T05:38:56.337Z,85.83
2019-02-21T05:39:56.350Z,85.62
2019-02-21T05:40:56.321Z,85.83
2019-02-21T05:41:56.301Z,86.34
2019-02-21T05:42:56.296Z,86.24
2019-02-21T05:43:56.281Z,87.31
2019-02-21T05:44:56.288Z,87.31
2019-02-21T05:45:56.256Z,87.21
2019-02-21T05:46:56.347Z,87.00
2019-02-21T05:47:56.234Z,87.31
2019-02-21T05:48:56.224Z,87.52
2019-02-21T05:49:56.229Z,87.52
2019-02-21T05:50:56.223Z,87.37
2019-02-21T05:51:56.190Z,87.17
2019-02-21T05:52:56.180Z,87.73
2019-02-21T05:53:56.167Z,86.79
2019-02-21T05:54:56.181Z,87.58
2019-02-21T05:55:56.143Z,87.62
2019-02-21T05:56:56.166Z,87.31
2019-02-21T05:57:56.123Z,86.76
2019-02-21T05:58:56.113Z,86.79
2019-02-21T05:59:56.127Z,87.73
2019-02-21T06:00:56.089Z,87.00
2019-02-21T06:01:56.124Z,87.21
2019-02-21T06:02:56.068Z,86.79
2019-02-21T06:03:56.053Z,87.48
2019-02-21T06:04:56.043Z,87.17
2019-02-21T06:05:56.053Z,87.58
2019-02-21T06:06:56.019Z,86.86
2019-02-21T06:07:56.013Z,87.73
2019-02-21T06:08:55.998Z,87.89
2019-02-21T06:09:55.993Z,87.73
2019-02-21T06:10:55.997Z,86.76
2019-02-21T06:11:55.965Z,87.00
2019-02-21T06:12:55.956Z,87.00
2019-02-21T06:13:55.946Z,86.90
2019-02-21T06:14:55.933Z,87.41
2019-02-21T06:15:55.942Z,87.41
2019-02-21T06:16:55.925Z,87.62
2019-02-21T06:17:55.902Z,87.62
2019-02-21T06:18:55.889Z,87.83
2019-02-21T06:19:55.881Z,87.83
2019-02-21T06:20:57.572Z,87.83
2019-02-21T06:21:55.853Z,87.87
2019-02-21T06:22:55.843Z,87.76
2019-02-21T06:23:55.832Z,88.07
2019-02-21T06:24:55.821Z,88.28
2019-02-21T06:25:59.079Z,88.28
2019-02-21T06:26:55.801Z,87.62
2019-02-21T06:27:58.274Z,88.70
2019-02-21T06:28:55.778Z,88.39
2019-02-21T06:29:55.765Z,88.70
2019-02-21T06:30:55.775Z,87.87
2019-02-21T06:31:55.741Z,87.87
2019-02-21T06:33:04.660Z,87.87
2019-02-21T06:33:56.717Z,87.97
2019-02-21T06:34:55.709Z,88.70
2019-02-21T06:35:55.713Z,88.49
2019-02-21T06:36:55.683Z,88.70
2019-02-21T06:37:55.671Z,88.49
2019-02-21T06:38:55.662Z,88.07
2019-02-21T06:39:55.648Z,88.07
2019-02-21T06:40:55.681Z,89.01
2019-02-21T06:41:59.533Z,88.80
2019-02-21T06:42:55.621Z,88.76
2019-02-21T06:43:56.923Z,88.59
2019-02-21T06:44:55.593Z,88.24
2019-02-21T06:45:57.797Z,88.65
2019-02-21T06:46:55.593Z,87.87
2019-02-21T06:47:55.557Z,88.80
2019-02-21T06:48:55.553Z,88.45
2019-02-21T06:49:55.538Z,87.97
2019-02-21T06:50:55.526Z,88.76
2019-02-21T06:51:55.536Z,88.07
2019-02-21T06:52:55.502Z,88.39
2019-02-21T06:53:55.498Z,88.70
2019-02-21T06:54:55.482Z,88.39
2019-02-21T06:55:55.471Z,88.59
2019-02-21T06:56:55.488Z,88.59
2019-02-21T06:57:55.448Z,88.39
2019-02-21T06:58:55.435Z,88.39
2019-02-21T06:59:55.425Z,88.59
2019-02-21T07:00:55.416Z,88.49
2019-02-21T07:01:55.405Z,88.18
2019-02-21T07:02:55.411Z,88.76
2019-02-21T07:03:55.378Z,88.55
2019-02-21T07:04:56.727Z,88.65
2019-02-21T07:05:55.358Z,88.65
2019-02-21T07:06:56.840Z,88.65
2019-02-21T07:07:55.356Z,87.99
2019-02-21T07:08:55.323Z,87.68
2019-02-21T07:09:55.310Z,87.83
2019-02-21T07:11:05.445Z,87.58
2019-02-21T07:11:56.288Z,87.99
2019-02-21T07:12:55.306Z,87.48
2019-02-21T07:13:55.270Z,87.79
2019-02-21T07:14:55.257Z,87.37
2019-02-21T07:15:55.246Z,87.37
2019-02-21T07:16:55.238Z,87.37
2019-02-21T07:17:55.226Z,87.48
2019-02-21T07:18:55.231Z,87.44
2019-02-21T07:19:55.202Z,86.92
2019-02-21T07:20:55.191Z,87.23
2019-02-21T07:21:55.182Z,86.36
2019-02-21T07:22:55.169Z,86.57
2019-02-21T07:23:55.174Z,85.44
2019-02-21T07:24:55.145Z,85.54
2019-02-21T07:25:55.133Z,85.60
2019-02-21T07:26:55.127Z,84.99
2019-02-21T07:27:55.114Z,84.57
2019-02-21T07:28:55.131Z,84.33
2019-02-21T07:29:55.087Z,84.22
2019-02-21T07:30:55.074Z,83.15
2019-02-21T07:31:55.065Z,84.39
2019-02-21T07:32:55.052Z,83.67
2019-02-21T07:33:55.067Z,83.36
2019-02-21T07:34:55.032Z,82.50
2019-02-21T07:35:55.023Z,82.09
2019-02-21T07:36:55.007Z,82.25
2019-02-21T07:37:55.007Z,82.35
2019-02-21T07:39:08.457Z,81.02
2019-02-21T07:39:55.988Z,80.88
2019-02-21T07:40:55.016Z,80.74
2019-02-21T07:41:55.773Z,78.89
2019-02-21T07:42:54.937Z,78.44
2019-02-21T07:43:54.929Z,78.33
2019-02-21T07:44:54.957Z,77.99
2019-02-21T07:45:54.901Z,77.13
2019-02-21T07:46:54.892Z,76.58
2019-02-21T07:47:54.960Z,75.87
2019-02-21T07:48:54.865Z,76.07
2019-02-21T07:49:54.886Z,75.97
2019-02-21T07:50:54.842Z,75.62
2019-02-21T07:51:54.831Z,75.01
2019-02-21T07:53:02.412Z,75.45
2019-02-21T07:53:55.806Z,74.77
2019-02-21T07:55:01.666Z,73.91
2019-02-21T07:55:55.949Z,72.41
2019-02-21T07:56:54.771Z,71.22
2019-02-21T07:57:54.766Z,70.40
2019-02-21T07:58:54.750Z,69.85
2019-02-21T07:59:54.742Z,69.45
2019-02-21T08:00:54.753Z,69.38
2019-02-21T08:01:54.717Z,70.71
2019-02-21T08:02:54.718Z,70.33
2019-02-21T08:03:54.694Z,70.09
2019-02-21T08:04:54.682Z,69.52
2019-02-21T08:05:54.688Z,68.60
2019-02-21T08:06:55.650Z,67.71
2019-02-21T08:07:54.655Z,66.77
2019-02-21T08:08:54.636Z,65.51
2019-02-21T08:09:54.626Z,64.46
2019-02-21T08:10:54.630Z,64.02
2019-02-21T08:11:54.602Z,63.82
2019-02-21T08:12:54.589Z,64.63
2019-02-21T08:13:54.578Z,64.53
2019-02-21T08:14:56.328Z,63.82
2019-02-21T08:15:54.577Z,64.43
2019-02-21T08:16:56.129Z,63.24
2019-02-21T08:17:54.533Z,62.20
2019-02-21T08:18:54.524Z,61.36
2019-02-21T08:19:54.512Z,60.59
2019-02-21T08:20:54.497Z,60.21
2019-02-21T08:21:54.507Z,61.05
2019-02-21T08:22:54.481Z,61.13
2019-02-21T08:23:54.461Z,60.82
2019-02-21T08:24:56.542Z,59.91
2019-02-21T08:25:54.440Z,60.75
2019-02-21T08:26:54.449Z,61.36
2019-02-21T08:27:54.417Z,61.79
2019-02-21T08:28:54.405Z,62.46
2019-02-21T08:29:54.397Z,63.28
2019-02-21T08:30:54.387Z,63.85
2019-02-21T08:31:54.389Z,65.00
2019-02-21T08:32:54.362Z,66.22
2019-02-21T08:33:58.395Z,67.27
2019-02-21T08:34:54.339Z,67.27
2019-02-21T08:35:54.515Z,67.38
2019-02-21T08:36:54.333Z,66.94
2019-02-21T08:37:54.305Z,65.52
2019-02-21T08:38:54.296Z,63.19
2019-02-21T08:39:54.277Z,62.55
2019-02-21T08:40:54.267Z,62.07
2019-02-21T08:41:55.167Z,61.63
2019-02-21T08:42:54.258Z,62.07
2019-02-21T08:43:54.230Z,62.68
2019-02-21T08:44:54.222Z,62.68
2019-02-21T08:45:54.213Z,62.71
2019-02-21T08:46:54.239Z,62.51
2019-02-21T08:47:54.189Z,62.54
2019-02-21T08:48:54.174Z,63.79
2019-02-21T08:49:54.172Z,64.22
2019-02-21T08:50:54.148Z,63.76
2019-02-21T08:51:55.060Z,64.22
2019-02-21T08:52:54.149Z,64.66
2019-02-21T08:53:54.117Z,66.33
2019-02-21T08:55:00.208Z,66.33
2019-02-21T08:55:56.015Z,66.77
2019-02-21T08:56:54.106Z,67.27
2019-02-21T08:57:54.070Z,67.61
2019-02-21T08:58:54.059Z,67.92
2019-02-21T08:59:54.048Z,68.53
2019-02-21T09:00:54.579Z,68.33
2019-02-21T09:01:54.024Z,67.48
2019-02-21T09:02:54.031Z,67.04
2019-02-21T09:03:54.001Z,67.24
2019-02-21T09:04:53.988Z,67.21
2019-02-21T09:05:53.985Z,67.11
2019-02-21T09:06:53.969Z,66.27
2019-02-21T09:07:53.978Z,65.11
2019-02-21T09:08:53.949Z,64.37
2019-02-21T09:09:53.936Z,63.07
2019-02-21T09:10:53.928Z,64.09
2019-02-21T09:11:54.018Z,64.40
2019-02-21T09:12:53.922Z,64.50
2019-02-21T09:13:55.752Z,64.40
2019-02-21T09:14:53.876Z,64.81
2019-02-21T09:15:55.845Z,64.97
2019-02-21T09:16:53.851Z,65.48
2019-02-21T09:17:54.345Z,66.16
2019-02-21T09:18:53.847Z,67.11
2019-02-21T09:20:50.079Z,65.14
2019-02-21T09:21:50.051Z,65.81
2019-02-21T09:22:50.027Z,67.41
2019-02-21T11:55:34.975Z,47.91
2019-02-21T12:02:24.975Z,53.90
2019-02-21T12:03:24.953Z,53.42
2019-02-21T12:04:24.955Z,54.05
2019-02-21T12:05:31.121Z,55.52
2019-02-21T12:06:25.925Z,55.52
2019-02-21T12:07:24.911Z,55.65
2019-02-21T12:08:24.910Z,56.49
2019-02-21T12:09:24.915Z,56.77
2019-02-21T12:10:24.872Z,56.59
2019-02-21T12:11:24.870Z,56.57
2019-02-21T12:12:24.865Z,57.30
2019-02-21T12:13:24.849Z,56.67
2019-02-21T12:14:24.833Z,57.10
2019-02-21T12:15:24.831Z,57.71
2019-02-21T12:16:24.799Z,58.31
2019-02-21T12:17:24.789Z,57.53
2019-02-21T12:18:24.787Z,57.84
2019-02-21T12:19:24.774Z,57.03
2019-02-21T12:20:24.803Z,57.50
2019-02-21T12:21:24.744Z,56.67
2019-02-21T12:22:24.752Z,56.13
2019-02-21T12:23:24.722Z,55.43
2019-02-21T12:24:24.709Z,55.85
2019-02-21T12:25:24.699Z,56.59
2019-02-21T12:26:24.704Z,56.92
2019-02-21T12:27:24.676Z,57.43
2019-02-21T12:28:24.662Z,56.82
2019-02-21T12:29:24.664Z,57.43
2019-02-21T12:30:24.641Z,57.25
2019-02-21T12:31:24.648Z,57.73
2019-02-21T12:32:24.613Z,57.46
2019-02-21T12:33:24.601Z,57.08
2019-02-21T12:34:24.591Z,57.86
2019-02-21T12:35:29.745Z,57.46
2019-02-21T12:36:25.590Z,57.05
2019-02-21T12:37:24.556Z,57.68
2019-02-21T12:38:24.547Z,57.56
2019-02-21T12:39:24.531Z,57.35
2019-02-21T12:40:24.626Z,57.66
2019-02-21T12:41:24.530Z,57.25
2019-02-21T12:42:24.528Z,57.15
2019-02-21T12:43:24.487Z,56.65
2019-02-21T12:44:24.475Z,57.56
2019-02-21T12:45:24.468Z,57.35
2019-02-21T12:46:24.451Z,57.46
2019-02-21T12:47:24.462Z,56.85
2019-02-21T12:48:24.428Z,57.41
2019-02-21T12:49:24.417Z,57.99
2019-02-21T12:50:24.410Z,58.02
2019-02-21T12:51:24.396Z,57.79
2019-02-21T12:52:24.401Z,56.87
2019-02-21T12:53:24.372Z,56.87
2019-02-21T12:54:24.841Z,57.48
2019-02-21T12:55:29.404Z,57.08
2019-02-21T12:56:25.336Z,57.59
2019-02-21T12:57:24.349Z,56.77
2019-02-21T12:58:24.316Z,56.99
2019-02-21T12:59:24.304Z,56.41
2019-02-21T13:00:24.290Z,55.68
2019-02-21T13:01:24.280Z,55.73
2019-02-21T13:02:24.271Z,56.24
2019-02-21T13:03:24.276Z,56.44
2019-02-21T13:04:24.245Z,56.67
2019-02-21T13:05:24.247Z,56.98
2019-02-21T13:06:24.223Z,56.87
2019-02-21T13:07:24.210Z,57.51
2019-02-21T13:08:24.227Z,57.41
2019-02-21T13:09:24.187Z,57.38
2019-02-21T13:10:24.177Z,56.87
2019-02-21T13:11:24.167Z,57.08
2019-02-21T13:12:24.154Z,56.98
2019-02-21T13:13:24.160Z,57.08
2019-02-21T13:14:24.131Z,57.05
2019-02-21T13:15:24.120Z,57.25
2019-02-21T13:16:24.117Z,56.92
2019-02-21T13:17:24.135Z,56.09
2019-02-21T13:18:24.109Z,55.15
2019-02-21T13:19:24.074Z,55.04
2019-02-21T13:20:24.061Z,55.88
2019-02-21T13:21:24.052Z,56.18
2019-02-21T13:22:24.045Z,55.37
2019-02-21T13:23:24.030Z,55.27
2019-02-21T13:24:24.036Z,55.80
2019-02-21T13:25:24.003Z,55.50
2019-02-21T13:26:23.994Z,57.15
2019-02-21T13:27:23.982Z,56.95
2019-02-21T13:28:23.973Z,56.85
2019-02-21T13:29:23.979Z,56.47
2019-02-21T13:30:23.959Z,56.87
2019-02-21T13:31:23.937Z,56.87
2019-02-21T13:32:23.924Z,56.98
2019-02-21T13:33:23.915Z,57.28
2019-02-21T13:34:23.920Z,56.98
2019-02-21T13:35:23.889Z,57.28
2019-02-21T13:36:23.881Z,56.98
2019-02-21T13:37:28.747Z,55.60
2019-02-21T13:38:24.856Z,55.91
2019-02-21T13:39:23.864Z,55.60
2019-02-21T13:40:23.850Z,56.21
2019-02-21T13:41:23.860Z,56.29
2019-02-21T13:42:23.808Z,55.80
2019-02-21T13:43:23.799Z,56.31
2019-02-21T13:44:23.805Z,55.68
2019-02-21T13:45:23.780Z,55.58
2019-02-21T13:46:23.846Z,55.37
2019-02-21T13:47:23.753Z,56.11
2019-02-21T13:48:23.743Z,56.01
2019-02-21T13:49:23.748Z,55.60
2019-02-21T13:50:24.014Z,56.85
2019-02-21T13:51:23.709Z,56.95
2019-02-21T13:52:23.697Z,56.95
2019-02-21T13:53:23.684Z,56.39
2019-02-21T13:54:23.713Z,56.82
2019-02-21T13:55:23.667Z,55.50
2019-02-21T13:56:23.651Z,56.31
2019-02-21T13:57:23.640Z,56.52
2019-02-21T13:58:23.632Z,55.40
2019-02-21T13:59:23.615Z,56.85
2019-02-21T14:00:23.635Z,56.95
2019-02-21T14:01:23.594Z,56.95
2019-02-21T14:02:23.583Z,56.95
2019-02-21T14:03:23.572Z,56.52
2019-02-21T14:04:23.558Z,56.21
2019-02-21T14:05:23.572Z,55.40
2019-02-21T14:06:23.539Z,55.80
2019-02-21T14:07:23.526Z,55.83
2019-02-21T14:08:23.515Z,55.50
2019-02-21T14:09:24.393Z,56.24
2019-02-21T14:10:23.492Z,56.37
2019-02-21T14:11:23.499Z,56.24
2019-02-21T14:12:26.290Z,56.57
2019-02-21T14:13:23.455Z,57.18
2019-02-21T14:14:23.446Z,56.98
2019-02-21T14:15:23.434Z,57.05
2019-02-21T14:16:23.440Z,55.91
2019-02-21T14:17:23.414Z,56.29
2019-02-21T14:18:24.484Z,56.39
2019-02-21T14:19:23.389Z,55.55
2019-02-21T14:20:23.377Z,54.71
2019-02-21T14:21:23.364Z,54.53
2019-02-21T14:22:23.370Z,55.78
2019-02-21T14:23:23.343Z,56.05
2019-02-21T14:24:23.334Z,55.52
2019-02-21T14:25:23.319Z,55.50
2019-02-21T14:26:23.305Z,54.23
2019-02-21T14:27:23.314Z,52.39
2019-02-21T14:28:23.284Z,51.55
2019-02-21T14:29:23.271Z,53.09
2019-02-21T14:30:23.262Z,53.63
2019-02-21T14:31:23.258Z,53.72
2019-02-21T14:32:23.258Z,53.45
2019-02-21T14:33:23.226Z,54.38
2019-02-21T14:34:23.219Z,55.25
2019-02-21T14:35:23.204Z,56.92
2019-02-21T14:36:23.191Z,56.62
2019-02-21T14:37:23.184Z,56.98
2019-02-21T14:38:27.921Z,57.68
2019-02-21T14:39:24.156Z,58.12
2019-02-21T14:40:23.146Z,58.73
2019-02-21T14:41:23.134Z,58.94
2019-02-21T14:42:23.124Z,58.02
2019-02-21T14:43:23.129Z,58.56
2019-02-21T14:44:23.099Z,58.76
2019-02-21T14:45:23.090Z,59.91
2019-02-21T14:46:23.240Z,59.39
2019-02-21T14:47:23.089Z,59.70
2019-02-21T14:48:23.084Z,59.60
2019-02-21T14:49:25.555Z,59.80
2019-02-21T14:50:23.034Z,60.52
2019-02-21T14:51:23.019Z,59.67
2019-02-21T14:52:23.012Z,59.60
2019-02-21T14:53:23.016Z,59.16
2019-02-21T14:54:22.987Z,58.69
2019-02-21T14:55:22.973Z,59.47
2019-02-21T14:56:22.959Z,59.80
2019-02-21T14:57:22.950Z,59.80
2019-02-21T14:58:22.958Z,59.09
2019-02-21T14:59:22.924Z,59.19
2019-02-21T15:00:22.914Z,59.70
2019-02-21T15:01:22.902Z,59.19
2019-02-21T15:02:22.890Z,59.19
2019-02-21T15:03:22.901Z,59.39
2019-02-21T15:04:22.867Z,59.70
2019-02-21T15:05:22.858Z,59.80
2019-02-21T15:06:27.020Z,59.70
2019-02-21T15:07:22.832Z,60.11
2019-02-21T15:08:22.821Z,60.00
2019-02-21T15:09:22.828Z,59.70
2019-02-21T15:10:22.795Z,59.91
2019-02-21T15:11:22.785Z,60.21
2019-02-21T15:12:22.777Z,60.52
2019-02-21T15:13:25.409Z,60.52
2019-02-21T15:14:22.770Z,59.73
2019-02-21T15:15:22.741Z,60.14
2019-02-21T15:16:22.725Z,60.24
2019-02-21T15:17:22.714Z,60.95
2019-02-21T15:18:22.707Z,60.24
2019-02-21T15:19:22.714Z,60.75
2019-02-21T15:20:22.679Z,60.85
2019-02-21T15:21:22.674Z,60.77
2019-02-21T15:22:22.656Z,60.34
2019-02-21T15:23:22.643Z,61.05
2019-02-21T15:24:22.656Z,61.05
2019-02-21T15:25:22.625Z,60.77
2019-02-21T15:26:22.610Z,61.29
2019-02-21T15:27:23.576Z,60.88
2019-02-21T15:28:22.590Z,61.08
2019-02-21T15:29:22.596Z,61.38
2019-02-21T15:30:22.563Z,61.38